createdAt,value
2022-07-31T00:02:09.828Z,26.04
2022-07-31T00:04:37.824Z,25.96
2022-07-31T00:07:06.526Z,25.88
2022-07-31T00:09:52.506Z,25.80
2022-07-31T00:12:23.563Z,25.86
2022-07-31T00:14:51.933Z,25.88
2022-07-31T00:17:20.466Z,25.86
2022-07-31T00:19:48.810Z,25.93
2022-07-31T00:22:16.563Z,26.05
2022-07-31T00:24:44.700Z,26.00
2022-07-31T00:27:12.885Z,26.03
2022-07-31T00:29:40.689Z,25.96
2022-07-31T00:32:08.712Z,25.87
2022-07-31T00:34:36.469Z,25.74
2022-07-31T00:37:05.404Z,25.62
2022-07-31T00:39:33.754Z,25.57
2022-07-31T00:42:01.716Z,25.62
2022-07-31T00:44:29.821Z,25.56
2022-07-31T00:47:00.704Z,25.49
2022-07-31T00:49:37.517Z,25.47
2022-07-31T00:52:06.637Z,25.48
2022-07-31T00:54:35.934Z,25.53
2022-07-31T00:57:04.262Z,25.62
2022-07-31T00:59:33.335Z,25.63
2022-07-31T01:02:01.271Z,25.66
2022-07-31T01:04:31.109Z,25.47
2022-07-31T01:07:01.475Z,25.57
2022-07-31T01:09:30.503Z,25.61
2022-07-31T01:12:03.041Z,25.50
2022-07-31T01:14:39.278Z,25.26
2022-07-31T01:17:09.996Z,25.24
2022-07-31T01:19:47.731Z,25.19
2022-07-31T01:22:32.999Z,25.24
2022-07-31T01:25:27.841Z,25.30
2022-07-31T01:28:15.212Z,25.33
2022-07-31T01:31:27.029Z,25.27
2022-07-31T01:34:16.410Z,25.28
2022-07-31T01:36:52.301Z,25.32
2022-07-31T01:39:21.579Z,25.20
2022-07-31T01:41:52.263Z,25.21
2022-07-31T01:44:24.021Z,25.25
2022-07-31T01:46:53.641Z,25.28
2022-07-31T01:49:22.838Z,25.27
2022-07-31T01:51:51.093Z,25.41
2022-07-31T01:54:23.144Z,25.25
2022-07-31T01:56:55.120Z,25.17
2022-07-31T01:59:24.631Z,25.05
2022-07-31T02:02:10.170Z,25.12
2022-07-31T02:04:39.801Z,25.08
2022-07-31T02:09:52.298Z,24.93
2022-07-31T02:12:33.333Z,24.59
2022-07-31T02:15:06.441Z,24.49
2022-07-31T02:17:37.261Z,24.67
2022-07-31T02:20:25.626Z,24.78
2022-07-31T02:22:57.376Z,24.82
2022-07-31T02:25:26.832Z,24.95
2022-07-31T02:27:59.193Z,24.93
2022-07-31T02:30:38.978Z,24.88
2022-07-31T02:33:19.091Z,24.38
2022-07-31T02:35:54.036Z,24.30
2022-07-31T02:38:26.311Z,24.13
2022-07-31T02:40:58.870Z,23.97
2022-07-31T02:43:29.730Z,23.99
2022-07-31T02:45:59.778Z,24.10
2022-07-31T02:48:29.375Z,24.20
2022-07-31T02:51:02.243Z,24.33
2022-07-31T02:53:31.483Z,24.23
2022-07-31T02:56:05.320Z,24.38
2022-07-31T02:58:42.119Z,24.52
2022-07-31T03:01:17.683Z,24.52
2022-07-31T03:03:45.953Z,24.57
2022-07-31T03:06:14.519Z,24.57
2022-07-31T03:08:43.192Z,24.63
2022-07-31T03:11:13.876Z,24.64
2022-07-31T03:13:43.727Z,24.48
2022-07-31T03:16:12.722Z,24.23
2022-07-31T03:18:41.320Z,24.19
2022-07-31T03:21:11.208Z,24.04
2022-07-31T03:23:39.788Z,23.91
2022-07-31T03:26:17.476Z,23.90
2022-07-31T03:28:45.761Z,23.77
2022-07-31T03:31:14.187Z,23.57
2022-07-31T03:33:42.921Z,23.39
2022-07-31T03:36:11.142Z,23.56
2022-07-31T03:38:42.666Z,23.72
2022-07-31T03:41:25.249Z,23.81
2022-07-31T03:43:54.484Z,23.58
2022-07-31T03:46:23.804Z,23.39
2022-07-31T03:48:53.126Z,23.40
2022-07-31T03:51:22.452Z,23.71
2022-07-31T03:53:51.731Z,23.67
2022-07-31T03:56:46.756Z,23.90
2022-07-31T03:59:19.709Z,24.02
2022-07-31T04:01:56.631Z,24.03
2022-07-31T04:04:59.882Z,23.93
2022-07-31T04:07:28.493Z,23.93
2022-07-31T04:09:56.422Z,23.82
2022-07-31T04:12:24.379Z,23.55
2022-07-31T04:14:52.957Z,23.40
2022-07-31T04:17:20.843Z,23.60
2022-07-31T04:19:49.630Z,23.64
2022-07-31T04:22:17.602Z,23.56
2022-07-31T04:24:45.879Z,23.60
2022-07-31T04:27:48.772Z,23.70
2022-07-31T04:30:18.192Z,23.94
2022-07-31T04:32:48.067Z,23.90
2022-07-31T04:35:22.437Z,24.04
2022-07-31T04:37:50.550Z,24.13
2022-07-31T04:40:20.247Z,24.22
2022-07-31T04:42:48.000Z,24.31
2022-07-31T04:45:16.169Z,23.99
2022-07-31T04:47:44.016Z,24.18
2022-07-31T04:50:12.280Z,24.37
2022-07-31T04:52:55.537Z,24.57
2022-07-31T04:55:24.947Z,24.71
2022-07-31T04:57:53.522Z,24.81
2022-07-31T05:00:22.005Z,24.77
2022-07-31T05:02:50.653Z,24.91
2022-07-31T05:05:18.529Z,25.05
2022-07-31T05:07:47.716Z,25.12
2022-07-31T05:10:38.516Z,25.16
2022-07-31T05:13:06.955Z,25.18
2022-07-31T05:15:35.661Z,25.18
2022-07-31T05:18:03.682Z,25.09
2022-07-31T05:20:52.513Z,25.30
2022-07-31T05:23:51.047Z,25.53
2022-07-31T05:26:29.227Z,25.71
2022-07-31T05:28:59.865Z,25.86
2022-07-31T05:31:28.305Z,25.77
2022-07-31T05:33:59.215Z,25.90
2022-07-31T05:36:28.018Z,26.07
2022-07-31T05:38:55.913Z,26.09
2022-07-31T05:41:42.235Z,26.23
2022-07-31T05:44:28.498Z,26.20
2022-07-31T05:49:26.811Z,26.47
2022-07-31T05:51:56.468Z,26.40
2022-07-31T05:54:24.809Z,26.50
2022-07-31T05:57:11.646Z,26.55
2022-07-31T05:59:59.553Z,26.66
2022-07-31T06:02:39.898Z,26.66
2022-07-31T06:05:29.943Z,26.49
2022-07-31T06:08:01.226Z,26.27
2022-07-31T06:10:33.241Z,26.55
2022-07-31T06:13:00.929Z,26.56
2022-07-31T06:15:32.010Z,26.53
2022-07-31T06:18:02.922Z,26.70
2022-07-31T06:20:31.480Z,26.57
2022-07-31T06:23:00.682Z,26.81
2022-07-31T06:25:38.945Z,26.80
2022-07-31T06:28:10.385Z,26.69
2022-07-31T06:30:40.584Z,26.85
2022-07-31T06:33:08.802Z,27.00
2022-07-31T06:35:44.584Z,26.95
2022-07-31T06:38:33.537Z,26.93
2022-07-31T06:41:40.644Z,26.78
2022-07-31T06:44:27.048Z,26.83
2022-07-31T06:47:16.058Z,27.03
2022-07-31T06:50:03.842Z,27.19
2022-07-31T06:52:38.548Z,27.28
2022-07-31T06:55:07.939Z,27.23
2022-07-31T06:57:37.793Z,27.19
2022-07-31T07:00:15.128Z,27.15
2022-07-31T07:02:49.899Z,27.19
2022-07-31T07:05:18.132Z,27.23
2022-07-31T07:07:49.657Z,27.33
2022-07-31T07:10:17.691Z,27.45
2022-07-31T07:13:00.601Z,27.32
2022-07-31T07:15:33.576Z,27.27
2022-07-31T07:18:01.787Z,27.10
2022-07-31T07:21:01.530Z,27.08
2022-07-31T07:23:29.379Z,27.07
2022-07-31T07:26:15.689Z,27.25
2022-07-31T07:28:44.115Z,27.22
2022-07-31T07:31:12.267Z,27.23
2022-07-31T07:33:42.680Z,27.35
2022-07-31T07:36:31.432Z,27.30
2022-07-31T07:39:04.270Z,27.35
2022-07-31T07:41:34.296Z,27.41
2022-07-31T07:44:02.592Z,27.35
2022-07-31T07:46:31.528Z,27.36
2022-07-31T07:49:04.538Z,27.43
2022-07-31T07:51:59.458Z,27.60
2022-07-31T07:54:33.904Z,27.79
2022-07-31T07:57:21.577Z,28.18
2022-07-31T08:00:10.988Z,28.24
2022-07-31T08:03:46.450Z,28.07
2022-07-31T08:05:38.319Z,28.20
2022-07-31T08:08:07.060Z,28.35
2022-07-31T08:10:56.398Z,28.14
2022-07-31T08:13:40.809Z,28.27
2022-07-31T08:16:23.894Z,28.41
2022-07-31T08:18:55.799Z,28.52
2022-07-31T08:21:24.502Z,28.41
2022-07-31T08:23:52.911Z,28.61
2022-07-31T08:26:21.419Z,28.87
2022-07-31T08:28:51.225Z,28.71
2022-07-31T08:31:24.043Z,28.82
2022-07-31T08:34:30.601Z,28.91
2022-07-31T08:38:01.602Z,29.19
2022-07-31T08:39:52.566Z,29.26
2022-07-31T08:42:20.911Z,29.15
2022-07-31T08:44:49.045Z,29.27
2022-07-31T08:47:20.005Z,29.28
2022-07-31T08:49:50.638Z,29.25
2022-07-31T08:52:25.206Z,29.38
2022-07-31T08:55:54.769Z,29.48
2022-07-31T08:58:07.922Z,29.57
2022-07-31T09:00:36.085Z,29.82
2022-07-31T09:03:05.051Z,30.09
2022-07-31T09:05:45.247Z,29.91
2022-07-31T09:08:16.262Z,30.02
2022-07-31T09:10:50.238Z,30.34
2022-07-31T09:13:20.045Z,30.64
2022-07-31T09:15:52.699Z,30.38
2022-07-31T09:18:24.857Z,30.80
2022-07-31T09:21:06.708Z,30.50
2022-07-31T09:23:46.369Z,30.60
2022-07-31T09:26:15.560Z,30.96
2022-07-31T09:28:46.485Z,30.70
2022-07-31T09:31:15.540Z,31.24
2022-07-31T09:34:00.569Z,31.20
2022-07-31T09:36:34.972Z,31.35
2022-07-31T09:39:27.871Z,31.43
2022-07-31T09:42:16.753Z,31.27
2022-07-31T09:45:24.520Z,31.09
2022-07-31T09:48:08.258Z,31.26
2022-07-31T09:50:36.950Z,31.08
2022-07-31T09:53:06.702Z,31.12
2022-07-31T09:55:36.686Z,31.56
2022-07-31T09:58:04.837Z,31.57
2022-07-31T10:00:39.068Z,31.92
2022-07-31T10:03:08.331Z,32.22
2022-07-31T10:05:38.312Z,31.96
2022-07-31T10:08:07.846Z,31.84
2022-07-31T10:10:55.748Z,32.41
2022-07-31T10:13:46.344Z,32.38
2022-07-31T10:16:15.197Z,32.70
2022-07-31T10:18:57.107Z,32.44
2022-07-31T10:21:54.794Z,32.56
2022-07-31T10:24:31.603Z,32.55
2022-07-31T10:27:10.564Z,32.45
2022-07-31T10:29:41.731Z,32.61
2022-07-31T10:32:10.662Z,32.71
2022-07-31T10:34:49.466Z,32.53
2022-07-31T10:37:53.376Z,32.73
2022-07-31T10:40:54.959Z,33.08
2022-07-31T10:43:27.083Z,33.78
2022-07-31T10:46:09.615Z,33.22
2022-07-31T10:49:08.739Z,33.69
2022-07-31T10:51:55.413Z,33.53
2022-07-31T10:54:58.380Z,34.16
2022-07-31T10:57:56.236Z,33.61
2022-07-31T11:00:39.561Z,33.99
2022-07-31T11:03:25.958Z,34.09
2022-07-31T11:06:42.925Z,34.49
2022-07-31T11:09:31.644Z,34.23
2022-07-31T11:12:19.789Z,34.46
2022-07-31T11:15:24.698Z,34.70
2022-07-31T11:18:26.732Z,34.54
2022-07-31T11:21:38.087Z,35.12
2022-07-31T11:24:03.038Z,35.00
2022-07-31T11:26:41.648Z,35.64
2022-07-31T11:30:01.085Z,35.71
2022-07-31T11:32:15.103Z,35.95
2022-07-31T11:34:54.042Z,36.24
2022-07-31T11:37:41.168Z,37.19
2022-07-31T11:40:14.816Z,36.68
2022-07-31T11:42:46.347Z,37.55
2022-07-31T11:45:17.764Z,37.64
2022-07-31T11:48:11.263Z,37.38
2022-07-31T11:50:43.982Z,38.00
2022-07-31T11:53:13.052Z,37.89
2022-07-31T11:55:47.974Z,38.41
2022-07-31T11:58:18.003Z,39.39
2022-07-31T12:01:06.593Z,38.31
2022-07-31T12:03:37.951Z,38.71
2022-07-31T12:06:08.426Z,38.19
2022-07-31T12:08:38.784Z,38.74
2022-07-31T12:11:09.535Z,38.97
2022-07-31T12:13:39.155Z,38.53
2022-07-31T12:16:09.804Z,39.01
2022-07-31T12:18:51.023Z,39.05
2022-07-31T12:21:20.616Z,39.88
2022-07-31T12:23:53.227Z,39.17
2022-07-31T12:26:33.582Z,39.42
2022-07-31T12:29:04.643Z,39.87
2022-07-31T12:31:48.212Z,39.72
2022-07-31T12:34:28.161Z,40.67
2022-07-31T12:36:59.937Z,40.77
2022-07-31T12:39:47.585Z,40.71
2022-07-31T12:42:30.834Z,39.98
2022-07-31T12:45:19.606Z,39.52
2022-07-31T12:47:53.612Z,41.04
2022-07-31T12:50:22.981Z,40.55
2022-07-31T12:52:51.427Z,41.56
2022-07-31T12:55:20.071Z,41.21
2022-07-31T12:57:51.421Z,41.17
2022-07-31T13:00:23.543Z,41.88
2022-07-31T13:02:53.609Z,41.52
2022-07-31T13:05:23.138Z,42.36
2022-07-31T13:07:51.913Z,43.51
2022-07-31T13:10:24.721Z,42.98
2022-07-31T13:12:53.427Z,42.65
2022-07-31T13:15:29.665Z,42.66
2022-07-31T13:17:59.318Z,44.15
2022-07-31T13:20:27.368Z,43.71
2022-07-31T13:22:55.576Z,44.21
2022-07-31T13:25:23.906Z,42.88
2022-07-31T13:27:51.824Z,44.95
2022-07-31T13:30:19.897Z,43.94
2022-07-31T13:32:47.587Z,43.90
2022-07-31T13:35:24.029Z,43.79
2022-07-31T13:37:56.016Z,44.81
2022-07-31T13:40:43.231Z,44.43
2022-07-31T13:43:11.810Z,43.58
2022-07-31T13:45:40.372Z,45.07
2022-07-31T13:48:10.096Z,45.85
2022-07-31T13:50:42.127Z,45.79
2022-07-31T13:53:10.267Z,45.21
2022-07-31T13:55:38.692Z,44.94
2022-07-31T13:58:07.386Z,45.41
2022-07-31T14:00:35.855Z,46.04
2022-07-31T14:03:03.776Z,45.74
2022-07-31T14:05:32.624Z,45.98
2022-07-31T14:08:32.873Z,45.53
2022-07-31T14:10:57.486Z,47.84
2022-07-31T14:13:25.966Z,47.88
2022-07-31T14:15:54.252Z,49.12
2022-07-31T14:18:23.505Z,49.01
2022-07-31T14:20:52.075Z,46.60
2022-07-31T14:23:19.891Z,46.63
2022-07-31T14:25:47.944Z,46.12
2022-07-31T14:28:17.052Z,46.61
2022-07-31T14:30:46.586Z,47.15
2022-07-31T14:33:17.794Z,48.23
2022-07-31T14:35:46.166Z,47.79
2022-07-31T14:38:26.937Z,46.55
2022-07-31T14:40:56.270Z,46.74
2022-07-31T14:43:24.371Z,47.14
2022-07-31T14:45:52.605Z,48.07
2022-07-31T14:48:22.029Z,46.92
2022-07-31T14:50:49.781Z,46.01
2022-07-31T14:53:18.129Z,45.92
2022-07-31T14:55:45.950Z,47.01
2022-07-31T14:58:13.819Z,46.31
2022-07-31T15:00:42.466Z,46.10
2022-07-31T15:03:10.270Z,46.97
2022-07-31T15:06:40.121Z,48.38
2022-07-31T15:08:27.746Z,47.29
2022-07-31T15:10:55.577Z,46.75
2022-07-31T15:13:24.303Z,45.28
2022-07-31T15:15:52.158Z,46.00
2022-07-31T15:18:20.334Z,45.41
2022-07-31T15:20:52.885Z,45.41
2022-07-31T15:23:21.674Z,44.92
2022-07-31T15:25:50.164Z,45.08
2022-07-31T15:28:17.915Z,44.83
2022-07-31T15:30:46.018Z,44.97
2022-07-31T15:33:14.768Z,45.54
2022-07-31T15:35:42.873Z,45.73
2022-07-31T15:38:11.747Z,45.98
2022-07-31T15:40:39.692Z,45.78
2022-07-31T15:43:07.754Z,45.54
2022-07-31T15:45:35.546Z,46.28
2022-07-31T15:48:06.976Z,44.57
2022-07-31T15:50:38.235Z,44.93
2022-07-31T15:53:06.564Z,45.28
2022-07-31T15:55:34.535Z,45.41
2022-07-31T15:58:02.767Z,45.93
2022-07-31T16:00:30.551Z,45.28
2022-07-31T16:02:59.674Z,44.70
2022-07-31T16:05:36.768Z,44.94
2022-07-31T16:08:29.639Z,44.59
2022-07-31T16:10:56.019Z,45.02
2022-07-31T16:13:25.341Z,45.16
2022-07-31T16:15:53.295Z,46.39
2022-07-31T16:18:21.839Z,45.08
2022-07-31T16:20:50.123Z,44.00
2022-07-31T16:23:17.936Z,44.81
2022-07-31T16:25:45.817Z,45.04
2022-07-31T16:28:15.067Z,45.34
2022-07-31T16:30:45.659Z,45.44
2022-07-31T16:33:13.821Z,45.13
2022-07-31T16:35:41.956Z,44.96
2022-07-31T16:38:09.855Z,43.74
2022-07-31T16:40:37.668Z,43.82
2022-07-31T16:43:49.694Z,43.77
2022-07-31T16:45:56.039Z,44.18
2022-07-31T16:48:24.375Z,44.17
2022-07-31T16:50:53.481Z,43.97
2022-07-31T16:54:11.198Z,43.23
2022-07-31T16:56:14.485Z,43.24
2022-07-31T16:58:43.782Z,43.48
2022-07-31T17:01:53.752Z,44.16
2022-07-31T17:04:03.929Z,44.27
2022-07-31T17:06:37.906Z,45.17
2022-07-31T17:09:16.985Z,43.92
2022-07-31T17:11:48.460Z,42.36
2022-07-31T17:14:18.354Z,42.47
2022-07-31T17:16:48.891Z,42.91
2022-07-31T17:19:41.649Z,42.44
2022-07-31T17:22:07.596Z,41.78
2022-07-31T17:24:38.047Z,41.71
2022-07-31T17:27:08.535Z,41.09
2022-07-31T17:29:37.973Z,41.23
2022-07-31T17:32:05.927Z,39.59
2022-07-31T17:34:35.673Z,37.94
2022-07-31T17:37:04.944Z,37.28
2022-07-31T17:39:33.214Z,36.55
2022-07-31T17:42:01.444Z,35.76
2022-07-31T17:44:30.977Z,35.08
2022-07-31T17:46:59.742Z,34.62
2022-07-31T17:49:32.091Z,34.65
2022-07-31T17:52:00.462Z,34.45
2022-07-31T17:54:30.710Z,34.32
2022-07-31T17:56:59.862Z,34.05
2022-07-31T17:59:28.627Z,33.92
2022-07-31T18:02:00.445Z,33.84
2022-07-31T18:04:31.782Z,33.74
2022-07-31T18:07:01.473Z,33.74
2022-07-31T18:09:29.278Z,33.71
2022-07-31T18:11:58.069Z,33.54
2022-07-31T18:14:26.298Z,33.53
2022-07-31T18:16:55.104Z,33.56
2022-07-31T18:19:23.857Z,33.56
2022-07-31T18:21:53.460Z,33.48
2022-07-31T18:24:22.659Z,33.45
2022-07-31T18:26:51.860Z,33.38
2022-07-31T18:29:20.620Z,33.35
2022-07-31T18:31:49.115Z,33.19
2022-07-31T18:34:17.619Z,33.15
2022-07-31T18:36:45.997Z,32.93
2022-07-31T18:39:13.668Z,32.74
2022-07-31T18:41:48.316Z,32.67
2022-07-31T18:44:17.097Z,32.50
2022-07-31T18:46:48.269Z,32.31
2022-07-31T18:50:59.944Z,32.22
2022-07-31T18:52:05.615Z,32.19
2022-07-31T18:54:33.715Z,32.10
2022-07-31T18:57:04.269Z,31.95
2022-07-31T18:59:32.307Z,31.93
2022-07-31T19:02:00.754Z,31.83
2022-07-31T19:04:29.107Z,31.74
2022-07-31T19:06:56.873Z,31.69
2022-07-31T19:09:25.412Z,31.67
2022-07-31T19:11:58.556Z,31.59
2022-07-31T19:14:31.479Z,31.46
2022-07-31T19:17:00.660Z,31.43
2022-07-31T19:19:30.403Z,31.40
2022-07-31T19:22:16.770Z,31.27
2022-07-31T19:24:44.993Z,31.24
2022-07-31T19:27:13.269Z,31.20
2022-07-31T19:29:41.608Z,31.11
2022-07-31T19:32:09.454Z,31.11
2022-07-31T19:34:37.908Z,31.09
2022-07-31T19:37:05.908Z,31.07
2022-07-31T19:39:38.301Z,31.04
2022-07-31T19:42:11.620Z,31.12
2022-07-31T19:44:40.927Z,31.11
2022-07-31T19:47:09.063Z,31.16
2022-07-31T19:49:38.614Z,31.07
2022-07-31T19:52:08.845Z,31.03
2022-07-31T19:54:37.922Z,31.01
2022-07-31T19:57:06.382Z,30.99
2022-07-31T19:59:34.157Z,31.00
2022-07-31T20:02:02.050Z,31.04
2022-07-31T20:04:30.141Z,31.09
2022-07-31T20:06:58.299Z,31.08
2022-07-31T20:09:26.223Z,31.08
2022-07-31T20:11:54.673Z,30.89
2022-07-31T20:14:23.635Z,30.86
2022-07-31T20:16:51.394Z,30.64
2022-07-31T20:19:19.624Z,30.40
2022-07-31T20:21:47.371Z,30.11
2022-07-31T20:24:17.777Z,30.19
2022-07-31T20:26:46.015Z,30.26
2022-07-31T20:29:14.252Z,30.33
2022-07-31T20:31:42.300Z,30.31
2022-07-31T20:34:10.039Z,30.04
2022-07-31T20:36:39.579Z,29.83
2022-07-31T20:39:07.789Z,29.94
2022-07-31T20:41:36.548Z,29.73
2022-07-31T20:44:04.475Z,29.67
2022-07-31T20:46:33.198Z,29.72
2022-07-31T20:49:01.038Z,29.74
2022-07-31T20:51:28.839Z,29.78
2022-07-31T20:53:56.791Z,29.55
2022-07-31T20:56:25.030Z,29.28
2022-07-31T20:58:53.602Z,29.07
2022-07-31T21:01:22.076Z,28.88
2022-07-31T21:03:49.985Z,28.91
2022-07-31T21:06:19.288Z,28.91
2022-07-31T21:08:47.786Z,29.07
2022-07-31T21:11:16.206Z,29.09
2022-07-31T21:13:45.402Z,29.03
2022-07-31T21:16:13.861Z,28.97
2022-07-31T21:18:43.443Z,29.03
2022-07-31T21:21:12.382Z,29.23
2022-07-31T21:23:40.132Z,29.32
2022-07-31T21:26:08.759Z,29.38
2022-07-31T21:28:37.001Z,29.19
2022-07-31T21:31:05.448Z,29.25
2022-07-31T21:33:33.972Z,29.22
2022-07-31T21:36:02.478Z,29.12
2022-07-31T21:38:30.872Z,29.11
2022-07-31T21:40:58.837Z,29.16
2022-07-31T21:43:30.495Z,29.10
2022-07-31T21:46:09.267Z,29.07
2022-07-31T21:48:39.116Z,29.20
2022-07-31T21:51:07.378Z,29.00
2022-07-31T21:53:35.757Z,28.97
2022-07-31T21:56:03.981Z,28.98
2022-07-31T21:58:31.823Z,29.03
2022-07-31T22:00:59.590Z,28.95
2022-07-31T22:03:27.513Z,28.71
2022-07-31T22:06:14.257Z,28.55
2022-07-31T22:08:42.836Z,28.27
2022-07-31T22:11:10.634Z,28.18
2022-07-31T22:13:38.502Z,28.30
2022-07-31T22:16:07.080Z,28.39
2022-07-31T22:18:36.149Z,28.37
2022-07-31T22:21:07.491Z,28.28
2022-07-31T22:23:36.593Z,28.15
2022-07-31T22:26:04.860Z,28.11
2022-07-31T22:28:33.485Z,28.20
2022-07-31T22:31:02.111Z,28.25
2022-07-31T22:33:30.134Z,28.19
2022-07-31T22:36:02.713Z,27.88
2022-07-31T22:38:30.914Z,27.44
2022-07-31T22:40:59.973Z,27.58
2022-07-31T22:44:14.094Z,27.56
2022-07-31T22:46:17.340Z,27.51
2022-07-31T22:48:46.070Z,27.35
2022-07-31T22:51:14.803Z,27.38
2022-07-31T22:53:44.476Z,27.44
2022-07-31T22:56:18.268Z,27.08
2022-07-31T22:58:46.833Z,27.16
2022-07-31T23:01:14.992Z,27.14
2022-07-31T23:03:42.799Z,27.23
2022-07-31T23:06:30.084Z,27.35
2022-07-31T23:08:59.175Z,27.19
2022-07-31T23:11:27.782Z,27.24
2022-07-31T23:13:55.808Z,27.31
2022-07-31T23:16:23.611Z,27.31
2022-07-31T23:18:52.181Z,27.38
2022-07-31T23:21:19.997Z,27.45
2022-07-31T23:23:49.628Z,27.35
2022-07-31T23:26:19.873Z,27.29
2022-07-31T23:28:48.186Z,27.23
2022-07-31T23:31:16.345Z,27.34
2022-07-31T23:33:45.008Z,27.43
2022-07-31T23:36:14.485Z,27.48
2022-07-31T23:38:43.740Z,27.37
2022-07-31T23:41:12.521Z,27.41
2022-07-31T23:43:40.712Z,27.44
2022-07-31T23:46:16.119Z,27.42
2022-07-31T23:48:45.148Z,27.27
2022-07-31T23:51:12.868Z,27.17
2022-07-31T23:53:41.209Z,27.27
2022-07-31T23:56:13.211Z,27.24
2022-07-31T23:58:47.643Z,27.28
